createdAt,value
2023-01-17T00:00:07.533Z,98611.00
2023-01-17T00:00:24.351Z,98603.88
2023-01-17T00:00:58.413Z,98607.34
2023-01-17T00:01:12.727Z,98601.22
2023-01-17T00:01:25.517Z,98604.69
2023-01-17T00:01:39.199Z,98604.84
2023-01-17T00:01:51.773Z,98602.22
2023-01-17T00:02:05.874Z,98600.38
2023-01-17T00:02:19.427Z,98610.16
2023-01-17T00:02:33.252Z,98603.03
2023-01-17T00:02:45.960Z,98604.84
2023-01-17T00:02:58.687Z,98604.00
2023-01-17T00:03:11.390Z,98602.22
2023-01-17T00:03:24.069Z,98599.56
2023-01-17T00:03:57.604Z,98596.22
2023-01-17T00:04:29.002Z,98604.00
2023-01-17T00:05:00.171Z,98606.53
2023-01-17T00:05:31.457Z,98602.22
2023-01-17T00:06:02.962Z,98611.00
2023-01-17T00:06:34.254Z,98610.16
2023-01-17T00:07:05.439Z,98603.88
2023-01-17T00:07:38.196Z,98611.81
2023-01-17T00:08:09.338Z,98613.50
2023-01-17T00:08:40.448Z,98605.69
2023-01-17T00:09:10.753Z,98614.34
2023-01-17T00:09:42.353Z,98603.72
2023-01-17T00:09:57.009Z,98602.91
2023-01-17T00:10:12.274Z,98613.50
2023-01-17T00:10:27.299Z,98615.16
2023-01-17T00:10:40.952Z,98613.34
2023-01-17T00:10:54.539Z,98609.03
2023-01-17T00:11:08.195Z,98609.84
2023-01-17T00:11:20.787Z,98610.41
2023-01-17T00:11:33.425Z,98600.63
2023-01-17T00:11:46.636Z,98601.75
2023-01-17T00:12:00.705Z,98613.22
2023-01-17T00:12:14.257Z,98610.56
2023-01-17T00:12:31.004Z,98601.75
2023-01-17T00:12:48.180Z,98611.56
2023-01-17T00:13:02.354Z,98602.91
2023-01-17T00:13:14.972Z,98615.16
2023-01-17T00:13:27.694Z,98606.38
2023-01-17T00:13:41.307Z,98604.56
2023-01-17T00:13:53.948Z,98607.22
2023-01-17T00:14:06.673Z,98611.69
2023-01-17T00:14:19.573Z,98618.81
2023-01-17T00:14:32.210Z,98604.56
2023-01-17T00:14:44.998Z,98607.22
2023-01-17T00:14:59.057Z,98609.84
2023-01-17T00:15:12.793Z,98609.03
2023-01-17T00:15:26.280Z,98606.38
2023-01-17T00:15:40.038Z,98605.38
2023-01-17T00:15:53.124Z,98606.25
2023-01-17T00:16:07.918Z,98606.25
2023-01-17T00:16:20.592Z,98600.94
2023-01-17T00:16:33.277Z,98602.59
2023-01-17T00:16:46.875Z,98606.25
2023-01-17T00:17:01.195Z,98605.25
2023-01-17T00:17:13.892Z,98614.03
2023-01-17T00:17:27.810Z,98604.25
2023-01-17T00:17:40.401Z,98608.72
2023-01-17T00:17:54.780Z,98599.81
2023-01-17T00:18:07.358Z,98601.59
2023-01-17T00:18:20.333Z,98603.28
2023-01-17T00:18:32.913Z,98606.91
2023-01-17T00:19:05.654Z,98604.25
2023-01-17T00:19:36.781Z,98599.81
2023-01-17T00:20:07.928Z,98600.78
2023-01-17T00:20:42.082Z,98605.09
2023-01-17T00:21:13.149Z,98603.28
2023-01-17T00:21:43.890Z,98598.81
2023-01-17T00:22:14.955Z,98599.63
2023-01-17T00:22:48.014Z,98591.69
2023-01-17T00:23:19.135Z,98594.34
2023-01-17T00:23:55.757Z,98596.03
2023-01-17T00:24:27.633Z,98594.19
2023-01-17T00:24:58.780Z,98585.41
2023-01-17T00:25:31.023Z,98589.88
2023-01-17T00:26:02.239Z,98594.06
2023-01-17T00:26:19.239Z,98595.03
2023-01-17T00:26:32.265Z,98582.75
2023-01-17T00:26:59.735Z,98582.75
2023-01-17T00:27:12.188Z,98591.41
2023-01-17T00:27:24.717Z,98584.41
2023-01-17T00:27:37.454Z,98588.88
2023-01-17T00:27:49.994Z,98586.09
2023-01-17T00:28:02.917Z,98583.44
2023-01-17T00:28:15.576Z,98580.94
2023-01-17T00:28:28.722Z,98578.41
2023-01-17T00:28:43.125Z,98583.59
2023-01-17T00:28:55.587Z,98584.41
2023-01-17T00:29:08.019Z,98584.41
2023-01-17T00:29:20.460Z,98584.28
2023-01-17T00:29:32.907Z,98582.44
2023-01-17T00:29:45.326Z,98580.78
2023-01-17T00:29:57.747Z,98576.31
2023-01-17T00:30:11.893Z,98580.78
2023-01-17T00:30:24.960Z,98579.97
2023-01-17T00:30:37.470Z,98581.75
2023-01-17T00:30:50.332Z,98578.13
2023-01-17T00:31:03.809Z,98579.09
2023-01-17T00:31:20.151Z,98574.66
2023-01-17T00:31:33.023Z,98571.16
2023-01-17T00:31:45.513Z,98570.19
2023-01-17T00:31:57.986Z,98570.19
2023-01-17T00:32:10.434Z,98573.78
2023-01-17T00:32:22.959Z,98568.50
2023-01-17T00:32:35.422Z,98575.47
2023-01-17T00:32:47.867Z,98575.47
2023-01-17T00:33:00.492Z,98575.47
2023-01-17T00:33:13.285Z,98567.66
2023-01-17T00:33:25.969Z,98570.31
2023-01-17T00:33:38.663Z,98568.50
2023-01-17T00:33:51.124Z,98573.78
2023-01-17T00:34:03.564Z,98569.34
2023-01-17T00:34:16.019Z,98569.34
2023-01-17T00:34:28.492Z,98569.34
2023-01-17T00:34:40.961Z,98573.78
2023-01-17T00:34:53.403Z,98567.66
2023-01-17T00:35:06.677Z,98567.53
2023-01-17T00:35:20.511Z,98564.88
2023-01-17T00:35:34.227Z,98570.19
2023-01-17T00:35:46.793Z,98568.50
2023-01-17T00:36:00.219Z,98563.19
2023-01-17T00:36:12.907Z,98568.50
2023-01-17T00:36:25.337Z,98572.00
2023-01-17T00:36:37.774Z,98572.97
2023-01-17T00:36:50.209Z,98572.81
2023-01-17T00:37:02.640Z,98570.31
2023-01-17T00:37:15.080Z,98568.50
2023-01-17T00:37:27.529Z,98573.78
2023-01-17T00:37:39.962Z,98566.84
2023-01-17T00:38:01.258Z,98560.53
2023-01-17T00:38:15.256Z,98563.34
2023-01-17T00:38:29.673Z,98566.84
2023-01-17T00:38:42.145Z,98568.50
2023-01-17T00:38:54.598Z,98568.50
2023-01-17T00:39:07.045Z,98571.16
2023-01-17T00:39:19.473Z,98568.50
2023-01-17T00:39:31.929Z,98564.03
2023-01-17T00:39:44.641Z,98569.34
2023-01-17T00:39:57.064Z,98559.56
2023-01-17T00:40:10.898Z,98563.19
2023-01-17T00:40:23.351Z,98571.00
2023-01-17T00:40:37.443Z,98564.03
2023-01-17T00:40:50.766Z,98562.06
2023-01-17T00:41:04.624Z,98562.06
2023-01-17T00:41:17.101Z,98560.25
2023-01-17T00:41:29.621Z,98556.91
2023-01-17T00:41:42.092Z,98551.47
2023-01-17T00:41:54.554Z,98557.59
2023-01-17T00:42:07.033Z,98558.44
2023-01-17T00:42:19.472Z,98557.44
2023-01-17T00:42:31.972Z,98554.78
2023-01-17T00:42:47.163Z,98559.25
2023-01-17T00:43:18.289Z,98559.94
2023-01-17T00:43:50.019Z,98554.78
2023-01-17T00:44:21.137Z,98554.63
2023-01-17T00:44:52.469Z,98549.47
2023-01-17T00:45:24.787Z,98552.81
2023-01-17T00:45:55.546Z,98549.19
2023-01-17T00:46:26.918Z,98543.56
2023-01-17T00:46:59.410Z,98546.41
2023-01-17T00:47:30.568Z,98541.09
2023-01-17T00:48:03.430Z,98534.09
2023-01-17T00:48:34.237Z,98527.28
2023-01-17T00:49:05.305Z,98533.28
2023-01-17T00:49:36.656Z,98530.63
2023-01-17T00:50:07.431Z,98523.78
2023-01-17T00:50:38.561Z,98524.47
2023-01-17T00:51:09.355Z,98531.59
2023-01-17T00:51:40.511Z,98529.78
2023-01-17T00:52:11.916Z,98525.44
2023-01-17T00:52:43.021Z,98533.28
2023-01-17T00:53:14.046Z,98524.31
2023-01-17T00:53:45.388Z,98524.47
2023-01-17T00:54:18.908Z,98531.44
2023-01-17T00:54:50.206Z,98533.28
2023-01-17T00:55:21.167Z,98532.44
2023-01-17T00:55:52.179Z,98528.94
2023-01-17T00:56:23.761Z,98529.78
2023-01-17T00:56:54.881Z,98522.66
2023-01-17T00:57:26.096Z,98526.13
2023-01-17T00:57:57.264Z,98525.16
2023-01-17T00:58:28.464Z,98527.81
2023-01-17T00:58:59.570Z,98525.16
2023-01-17T00:59:30.684Z,98519.19
2023-01-17T01:00:01.731Z,98522.66
2023-01-17T01:00:33.302Z,98527.97
2023-01-17T01:01:04.506Z,98524.47
2023-01-17T01:01:36.645Z,98524.47
2023-01-17T01:02:09.280Z,98524.31
2023-01-17T01:02:41.007Z,98522.66
2023-01-17T01:03:12.230Z,98524.19
2023-01-17T01:03:43.249Z,98518.88
2023-01-17T01:04:14.246Z,98522.53
2023-01-17T01:04:45.258Z,98523.22
2023-01-17T01:05:16.271Z,98522.34
2023-01-17T01:05:47.071Z,98523.22
2023-01-17T01:06:18.091Z,98518.72
2023-01-17T01:06:49.146Z,98522.22
2023-01-17T01:07:20.753Z,98515.91
2023-01-17T01:07:51.935Z,98515.06
2023-01-17T01:08:38.422Z,98519.56
2023-01-17T01:09:10.252Z,98515.75
2023-01-17T01:09:41.053Z,98521.06
2023-01-17T01:10:12.091Z,98518.41
2023-01-17T01:10:42.935Z,98520.25
2023-01-17T01:11:13.932Z,98517.72
2023-01-17T01:11:44.874Z,98516.91
2023-01-17T01:12:16.208Z,98521.22
2023-01-17T01:12:47.220Z,98519.41
2023-01-17T01:13:18.244Z,98518.56
2023-01-17T01:13:50.856Z,98513.25
2023-01-17T01:14:22.936Z,98511.44
2023-01-17T01:14:54.260Z,98514.09
2023-01-17T01:15:26.934Z,98515.91
2023-01-17T01:15:57.936Z,98510.59
2023-01-17T01:16:29.883Z,98512.28
2023-01-17T01:17:01.016Z,98510.47
2023-01-17T01:17:33.528Z,98511.44
2023-01-17T01:18:04.624Z,98505.28
2023-01-17T01:18:35.787Z,98514.94
2023-01-17T01:19:06.793Z,98506.97
2023-01-17T01:19:37.660Z,98510.59
2023-01-17T01:20:08.782Z,98506.97
2023-01-17T01:20:39.549Z,98504.47
2023-01-17T01:21:10.741Z,98506.97
2023-01-17T01:21:41.934Z,98499.00
2023-01-17T01:22:13.040Z,98507.81
2023-01-17T01:22:43.887Z,98507.81
2023-01-17T01:23:14.947Z,98505.28
2023-01-17T01:23:46.069Z,98507.94
2023-01-17T01:24:17.216Z,98506.97
2023-01-17T01:24:48.174Z,98500.97
2023-01-17T01:25:19.307Z,98503.63
2023-01-17T01:25:50.746Z,98511.59
2023-01-17T01:26:22.325Z,98510.75
2023-01-17T01:26:53.318Z,98504.63
2023-01-17T01:27:24.332Z,98510.75
2023-01-17T01:27:55.461Z,98501.97
2023-01-17T01:28:30.625Z,98505.28
2023-01-17T01:29:01.724Z,98500.84
2023-01-17T01:29:32.622Z,98499.84
2023-01-17T01:30:04.389Z,98498.00
2023-01-17T01:30:35.614Z,98498.19
2023-01-17T01:31:07.544Z,98503.31
2023-01-17T01:31:38.967Z,98498.88
2023-01-17T01:32:10.213Z,98495.34
2023-01-17T01:32:43.080Z,98496.22
2023-01-17T01:33:14.075Z,98490.75
2023-01-17T01:33:26.545Z,98483.78
2023-01-17T01:33:40.139Z,98482.09
2023-01-17T01:33:53.673Z,98483.78
2023-01-17T01:34:06.246Z,98489.09
2023-01-17T01:34:18.967Z,98482.78
2023-01-17T01:34:31.525Z,98481.94
2023-01-17T01:34:44.099Z,98482.94
2023-01-17T01:34:56.682Z,98487.25
2023-01-17T01:35:10.257Z,98482.78
2023-01-17T01:35:23.512Z,98477.66
2023-01-17T01:35:36.576Z,98480.28
2023-01-17T01:35:51.096Z,98486.44
2023-01-17T01:36:04.033Z,98481.13
2023-01-17T01:36:16.674Z,98483.78
2023-01-17T01:36:30.280Z,98480.28
2023-01-17T01:36:42.867Z,98483.91
2023-01-17T01:36:55.437Z,98480.44
2023-01-17T01:37:08.007Z,98475.13
2023-01-17T01:37:20.594Z,98481.25
2023-01-17T01:37:33.197Z,98480.44
2023-01-17T01:37:45.815Z,98482.25
2023-01-17T01:37:59.651Z,98480.44
2023-01-17T01:38:12.272Z,98484.75
2023-01-17T01:38:26.448Z,98483.91
2023-01-17T01:38:39.644Z,98479.59
2023-01-17T01:38:53.552Z,98483.91
2023-01-17T01:39:06.383Z,98476.09
2023-01-17T01:39:20.042Z,98478.75
2023-01-17T01:39:32.651Z,98484.06
2023-01-17T01:39:45.235Z,98480.56
2023-01-17T01:39:57.876Z,98480.44
2023-01-17T01:40:11.437Z,98479.75
2023-01-17T01:40:24.193Z,98479.59
2023-01-17T01:40:42.451Z,98489.38
2023-01-17T01:40:57.700Z,98479.75
2023-01-17T01:41:10.310Z,98484.06
2023-01-17T01:41:23.304Z,98488.53
2023-01-17T01:41:35.879Z,98486.72
2023-01-17T01:41:48.798Z,98484.06
2023-01-17T01:42:01.384Z,98484.06
2023-01-17T01:42:15.372Z,98488.53
2023-01-17T01:42:28.915Z,98481.56
2023-01-17T01:42:49.345Z,98488.53
2023-01-17T01:43:05.724Z,98489.38
2023-01-17T01:43:20.980Z,98489.38
2023-01-17T01:43:44.046Z,98491.19
2023-01-17T01:43:57.622Z,98490.38
2023-01-17T01:44:44.689Z,98491.06
2023-01-17T01:44:57.537Z,98489.38
2023-01-17T01:45:17.384Z,98492.03
2023-01-17T01:45:33.200Z,98489.38
2023-01-17T01:45:50.578Z,98490.22
2023-01-17T01:46:03.907Z,98484.06
2023-01-17T01:46:21.533Z,98485.75
2023-01-17T01:46:40.315Z,98484.06
2023-01-17T01:46:52.902Z,98484.06
2023-01-17T01:47:05.604Z,98479.59
2023-01-17T01:47:27.016Z,98480.44
2023-01-17T01:47:40.823Z,98488.25
2023-01-17T01:47:57.725Z,98478.59
2023-01-17T01:48:24.267Z,98483.78
2023-01-17T01:48:40.840Z,98479.44
2023-01-17T01:48:56.144Z,98480.13
2023-01-17T01:49:18.591Z,98482.09
2023-01-17T01:49:31.236Z,98482.09
2023-01-17T01:49:44.388Z,98478.47
2023-01-17T01:50:00.271Z,98476.78
2023-01-17T01:50:15.002Z,98471.47
2023-01-17T01:50:29.534Z,98472.34
2023-01-17T01:50:44.051Z,98472.34
2023-01-17T01:50:56.896Z,98470.50
2023-01-17T01:51:16.036Z,98473.16
2023-01-17T01:51:33.408Z,98465.19
2023-01-17T01:51:49.817Z,98461.53
2023-01-17T01:52:05.807Z,98466.03
2023-01-17T01:52:22.495Z,98465.06
2023-01-17T01:52:40.119Z,98471.34
2023-01-17T01:52:56.150Z,98473.16
2023-01-17T01:53:08.752Z,98469.50
2023-01-17T01:53:21.952Z,98460.03
2023-01-17T01:53:38.378Z,98467.03
2023-01-17T01:53:59.768Z,98466.16
2023-01-17T01:54:17.915Z,98467.03
2023-01-17T01:54:36.525Z,98459.22
2023-01-17T01:54:55.040Z,98468.00
2023-01-17T01:55:11.620Z,98459.06
2023-01-17T01:55:27.884Z,98464.38
2023-01-17T01:55:43.410Z,98463.50
2023-01-17T01:55:56.212Z,98460.84
2023-01-17T01:56:13.264Z,98458.22
2023-01-17T01:56:26.717Z,98460.84
2023-01-17T01:56:39.854Z,98453.75
2023-01-17T01:56:55.887Z,98456.41
2023-01-17T01:57:12.867Z,98455.56
2023-01-17T01:57:30.716Z,98451.94
2023-01-17T01:57:47.466Z,98456.09
2023-01-17T01:58:07.596Z,98455.28
2023-01-17T01:58:23.126Z,98457.78
2023-01-17T01:58:38.429Z,98455.28
2023-01-17T01:58:52.641Z,98458.59
2023-01-17T01:59:08.914Z,98459.56
2023-01-17T01:59:22.997Z,98446.63
2023-01-17T01:59:39.012Z,98451.94
2023-01-17T01:59:55.799Z,98458.91
2023-01-17T02:00:17.555Z,98456.25
2023-01-17T02:00:33.773Z,98453.59
2023-01-17T02:00:46.557Z,98460.72
2023-01-17T02:00:59.257Z,98457.25
2023-01-17T02:01:12.222Z,98451.94
2023-01-17T02:01:25.027Z,98451.94
2023-01-17T02:01:38.819Z,98452.91
2023-01-17T02:01:56.098Z,98458.91
2023-01-17T02:02:08.893Z,98454.59
2023-01-17T02:02:21.787Z,98449.28
2023-01-17T02:02:36.053Z,98450.09
2023-01-17T02:02:51.212Z,98450.94
2023-01-17T02:03:08.077Z,98443.97
2023-01-17T02:03:26.027Z,98450.94
2023-01-17T02:03:41.177Z,98452.06
2023-01-17T02:03:53.872Z,98456.41
2023-01-17T02:04:10.107Z,98449.28
2023-01-17T02:04:24.145Z,98445.78
2023-01-17T02:04:37.155Z,98443.81
2023-01-17T02:04:50.872Z,98445.63
2023-01-17T02:05:04.835Z,98437.66
2023-01-17T02:05:20.724Z,98442.81
2023-01-17T02:05:36.343Z,98447.31
2023-01-17T02:05:49.188Z,98437.53
2023-01-17T02:06:12.376Z,98440.19
2023-01-17T02:06:29.272Z,98439.34
2023-01-17T02:06:45.949Z,98442.00
2023-01-17T02:07:06.707Z,98435.88
2023-01-17T02:07:23.961Z,98434.03
2023-01-17T02:07:43.914Z,98435.00
2023-01-17T02:08:02.747Z,98436.69
2023-01-17T02:08:18.031Z,98434.03
2023-01-17T02:08:32.544Z,98428.72
2023-01-17T02:08:45.522Z,98431.38
2023-01-17T02:09:00.982Z,98434.88
2023-01-17T02:09:15.469Z,98429.56
2023-01-17T02:09:28.145Z,98426.91
2023-01-17T02:09:41.598Z,98427.72
2023-01-17T02:09:55.044Z,98430.38
2023-01-17T02:10:09.733Z,98428.72
2023-01-17T02:10:22.310Z,98426.06
2023-01-17T02:10:36.436Z,98430.69
2023-01-17T02:10:49.871Z,98430.69
2023-01-17T02:11:03.182Z,98435.00
2023-01-17T02:11:15.884Z,98426.06
2023-01-17T02:11:29.550Z,98427.03
2023-01-17T02:11:42.699Z,98427.03
2023-01-17T02:11:55.340Z,98426.06
2023-01-17T02:12:09.198Z,98428.72
2023-01-17T02:12:22.211Z,98432.34
2023-01-17T02:12:35.608Z,98429.69
2023-01-17T02:12:49.510Z,98429.69
2023-01-17T02:13:04.215Z,98425.41
2023-01-17T02:13:19.406Z,98422.59
2023-01-17T02:13:32.004Z,98434.03
2023-01-17T02:13:44.624Z,98429.69
2023-01-17T02:13:57.175Z,98423.41
2023-01-17T02:14:15.276Z,98419.94
2023-01-17T02:14:27.909Z,98427.03
2023-01-17T02:14:42.259Z,98421.75
2023-01-17T02:14:55.566Z,98430.38
2023-01-17T02:15:09.112Z,98427.72
2023-01-17T02:15:25.580Z,98425.06
2023-01-17T02:15:48.664Z,98427.72
2023-01-17T02:16:09.657Z,98422.41
2023-01-17T02:16:49.985Z,98422.41
2023-01-17T02:17:12.419Z,98422.41
2023-01-17T02:17:33.965Z,98424.25
2023-01-17T02:17:59.654Z,98427.72
2023-01-17T02:18:21.623Z,98419.78
2023-01-17T02:18:50.205Z,98423.09
2023-01-17T02:19:22.592Z,98419.47
2023-01-17T02:20:08.591Z,98419.47
2023-01-17T02:20:58.712Z,98414.47
2023-01-17T02:21:26.371Z,98411.81
2023-01-17T02:21:46.486Z,98405.00
2023-01-17T02:22:17.264Z,98407.66
2023-01-17T02:23:03.437Z,98406.00
2023-01-17T02:23:44.239Z,98406.81
2023-01-17T02:24:26.523Z,98398.03
2023-01-17T02:25:03.691Z,98409.47
2023-01-17T02:25:38.838Z,98408.66
2023-01-17T02:26:16.660Z,98398.03
2023-01-17T02:26:47.933Z,98406.81
2023-01-17T02:27:08.341Z,98408.78
2023-01-17T02:27:26.081Z,98403.34
2023-01-17T02:27:56.413Z,98408.66
2023-01-17T02:28:24.634Z,98402.47
2023-01-17T02:29:01.561Z,98403.34
2023-01-17T02:29:49.884Z,98402.19
2023-01-17T02:30:28.618Z,98398.03
2023-01-17T02:30:46.230Z,98391.88
2023-01-17T02:31:06.823Z,98396.34
2023-01-17T02:31:26.903Z,98393.69
2023-01-17T02:31:46.244Z,98395.53
2023-01-17T02:32:05.251Z,98386.72
2023-01-17T02:32:23.552Z,98391.03
2023-01-17T02:32:45.672Z,98393.53
2023-01-17T02:33:15.644Z,98385.72
2023-01-17T02:33:36.017Z,98388.25
2023-01-17T02:33:57.785Z,98389.22
2023-01-17T02:34:17.541Z,98383.22
2023-01-17T02:34:37.148Z,98384.91
2023-01-17T02:34:55.957Z,98386.88
2023-01-17T02:35:18.458Z,98386.56
2023-01-17T02:35:38.042Z,98385.72
2023-01-17T02:36:04.190Z,98375.44
2023-01-17T02:36:24.186Z,98383.22
2023-01-17T02:36:43.492Z,98378.91
2023-01-17T02:37:05.508Z,98377.41
2023-01-17T02:37:23.979Z,98381.88
2023-01-17T02:37:45.889Z,98381.88
2023-01-17T02:38:07.219Z,98382.03
2023-01-17T02:38:31.664Z,98384.69
2023-01-17T02:38:51.620Z,98377.69
2023-01-17T02:39:09.594Z,98375.91
2023-01-17T02:39:24.445Z,98384.69
2023-01-17T02:39:43.571Z,98383.84
2023-01-17T02:40:00.516Z,98383.84
2023-01-17T02:40:19.510Z,98385.50
2023-01-17T02:40:38.193Z,98376.88
2023-01-17T02:40:56.011Z,98378.53
2023-01-17T02:41:16.868Z,98377.69
2023-01-17T02:41:33.546Z,98381.19
2023-01-17T02:41:49.085Z,98381.19
2023-01-17T02:42:07.573Z,98377.69
2023-01-17T02:42:26.552Z,98378.53
2023-01-17T02:42:46.625Z,98378.53
2023-01-17T02:43:05.649Z,98380.19
2023-01-17T02:43:20.209Z,98375.72
2023-01-17T02:43:33.803Z,98380.19
2023-01-17T02:43:50.304Z,98369.59
2023-01-17T02:44:03.897Z,98371.28
2023-01-17T02:44:19.175Z,98370.28
2023-01-17T02:44:40.888Z,98370.41
2023-01-17T02:44:53.544Z,98376.72
2023-01-17T02:45:07.966Z,98381.88
2023-01-17T02:45:21.149Z,98378.22
2023-01-17T02:45:36.361Z,98367.63
2023-01-17T02:45:49.015Z,98372.91
2023-01-17T02:46:01.665Z,98373.91
2023-01-17T02:46:14.366Z,98370.41
2023-01-17T02:46:26.933Z,98367.75
2023-01-17T02:46:46.683Z,98368.91
2023-01-17T02:46:59.416Z,98375.91
2023-01-17T02:47:24.975Z,98367.94
2023-01-17T02:47:37.856Z,98375.03
2023-01-17T02:47:50.430Z,98378.53
2023-01-17T02:48:03.372Z,98374.06
2023-01-17T02:48:20.060Z,98369.91
2023-01-17T02:48:37.631Z,98372.56
2023-01-17T02:48:51.776Z,98378.53
2023-01-17T02:49:04.336Z,98377.69
2023-01-17T02:49:19.451Z,98373.25
2023-01-17T02:49:32.860Z,98375.91
2023-01-17T02:49:45.493Z,98375.03
2023-01-17T02:50:02.194Z,98374.91
2023-01-17T02:50:20.938Z,98371.56
2023-01-17T02:50:46.541Z,98378.53
2023-01-17T02:51:24.257Z,98382.84
2023-01-17T02:52:07.190Z,98375.56
2023-01-17T02:52:36.270Z,98374.91
2023-01-17T02:53:03.733Z,98373.06
2023-01-17T02:53:31.202Z,98370.41
2023-01-17T02:53:58.551Z,98366.25
2023-01-17T02:54:47.193Z,98367.94
2023-01-17T02:55:13.267Z,98365.56
2023-01-17T02:55:37.933Z,98368.22
2023-01-17T02:55:57.353Z,98364.88
2023-01-17T02:56:19.498Z,98364.88
2023-01-17T02:56:45.117Z,98366.72
2023-01-17T02:57:12.179Z,98367.72
2023-01-17T02:57:47.917Z,98361.53
2023-01-17T02:58:22.343Z,98371.19
2023-01-17T02:58:49.184Z,98363.38
2023-01-17T02:59:16.635Z,98367.03
2023-01-17T02:59:39.040Z,98363.50
2023-01-17T02:59:57.652Z,98368.81
2023-01-17T03:00:21.757Z,98368.81
2023-01-17T03:00:48.877Z,98363.50
2023-01-17T03:01:10.129Z,98360.88
2023-01-17T03:01:30.203Z,98361.88
2023-01-17T03:01:58.495Z,98359.22
2023-01-17T03:02:23.076Z,98356.56
2023-01-17T03:02:43.064Z,98359.91
2023-01-17T03:03:02.345Z,98359.06
2023-01-17T03:03:23.144Z,98358.22
2023-01-17T03:03:42.905Z,98359.06
2023-01-17T03:04:01.672Z,98355.56
2023-01-17T03:04:20.656Z,98357.25
2023-01-17T03:04:39.183Z,98356.25
2023-01-17T03:04:55.811Z,98358.22
2023-01-17T03:05:13.420Z,98362.53
2023-01-17T03:05:32.557Z,98355.56
2023-01-17T03:05:52.910Z,98354.59
2023-01-17T03:06:12.025Z,98359.91
2023-01-17T03:06:30.332Z,98360.03
2023-01-17T03:06:48.163Z,98359.06
2023-01-17T03:07:06.230Z,98356.25
2023-01-17T03:07:23.485Z,98357.25
2023-01-17T03:07:39.953Z,98354.59
2023-01-17T03:07:53.822Z,98359.06
2023-01-17T03:08:07.585Z,98355.56
2023-01-17T03:08:22.367Z,98354.59
2023-01-17T03:08:35.106Z,98355.56
2023-01-17T03:08:50.608Z,98354.59
2023-01-17T03:09:04.268Z,98356.25
2023-01-17T03:09:18.573Z,98356.25
2023-01-17T03:09:32.586Z,98355.41
2023-01-17T03:09:49.441Z,98354.59
2023-01-17T03:10:05.327Z,98354.59
2023-01-17T03:10:19.283Z,98343.97
2023-01-17T03:10:35.257Z,98353.75
2023-01-17T03:10:47.882Z,98353.75
2023-01-17T03:11:01.536Z,98348.44
2023-01-17T03:11:14.849Z,98358.22
2023-01-17T03:11:27.838Z,98350.56
2023-01-17T03:11:40.847Z,98349.56
2023-01-17T03:11:53.728Z,98353.22
2023-01-17T03:12:09.399Z,98351.56
2023-01-17T03:12:22.135Z,98346.25
2023-01-17T03:12:39.334Z,98352.41
2023-01-17T03:12:57.792Z,98354.03
2023-01-17T03:13:10.493Z,98350.56
2023-01-17T03:13:23.126Z,98349.56
2023-01-17T03:13:35.774Z,98349.56
2023-01-17T03:13:48.402Z,98354.22
2023-01-17T03:14:01.968Z,98353.22
2023-01-17T03:14:14.589Z,98350.56
2023-01-17T03:14:30.222Z,98350.44
2023-01-17T03:14:42.774Z,98348.75
2023-01-17T03:14:55.380Z,98345.25
2023-01-17T03:15:10.951Z,98345.94
2023-01-17T03:15:23.620Z,98350.44
2023-01-17T03:15:40.034Z,98344.25
2023-01-17T03:15:53.164Z,98345.94
2023-01-17T03:16:12.775Z,98346.91
2023-01-17T03:16:27.897Z,98351.41
2023-01-17T03:16:40.600Z,98344.25
2023-01-17T03:16:54.388Z,98338.97
2023-01-17T03:17:07.386Z,98346.09
2023-01-17T03:17:20.425Z,98349.75
2023-01-17T03:17:33.281Z,98348.75
2023-01-17T03:17:49.411Z,98348.75
2023-01-17T03:18:05.207Z,98344.59
2023-01-17T03:18:17.889Z,98342.59
2023-01-17T03:18:31.490Z,98345.25
2023-01-17T03:18:44.167Z,98346.25
2023-01-17T03:18:56.795Z,98340.97
2023-01-17T03:19:09.918Z,98341.78
2023-01-17T03:19:22.491Z,98340.09
2023-01-17T03:19:35.148Z,98340.97
2023-01-17T03:19:48.055Z,98351.56
2023-01-17T03:20:00.663Z,98344.59
2023-01-17T03:20:14.341Z,98340.97
2023-01-17T03:20:27.237Z,98332.16
2023-01-17T03:20:40.033Z,98334.78
2023-01-17T03:20:52.618Z,98341.78
2023-01-17T03:21:05.412Z,98342.59
2023-01-17T03:21:18.007Z,98350.72
2023-01-17T03:21:31.922Z,98332.31
2023-01-17T03:21:44.521Z,98342.94
2023-01-17T03:21:57.165Z,98345.59
2023-01-17T03:22:09.799Z,98341.25
2023-01-17T03:22:22.420Z,98339.41
2023-01-17T03:22:35.000Z,98342.94
2023-01-17T03:22:47.599Z,98345.72
2023-01-17T03:23:00.205Z,98348.22
2023-01-17T03:23:13.783Z,98342.06
2023-01-17T03:23:26.595Z,98337.63
2023-01-17T03:23:39.224Z,98350.03
2023-01-17T03:23:52.625Z,98343.06
2023-01-17T03:24:05.722Z,98342.94
2023-01-17T03:24:18.285Z,98340.41
2023-01-17T03:24:31.000Z,98335.94
2023-01-17T03:24:44.576Z,98341.25
2023-01-17T03:24:57.164Z,98344.91
2023-01-17T03:25:10.467Z,98339.59
2023-01-17T03:25:23.120Z,98340.41
2023-01-17T03:25:35.705Z,98344.91
2023-01-17T03:25:48.346Z,98341.25
2023-01-17T03:26:02.092Z,98338.59
2023-01-17T03:26:14.828Z,98346.53
2023-01-17T03:26:27.401Z,98342.94
2023-01-17T03:26:39.982Z,98339.41
2023-01-17T03:26:52.581Z,98336.75
2023-01-17T03:27:05.181Z,98336.75
2023-01-17T03:27:17.811Z,98338.44
2023-01-17T03:27:31.359Z,98339.28
2023-01-17T03:27:44.281Z,98341.09
2023-01-17T03:27:56.914Z,98343.75
2023-01-17T03:28:09.521Z,98340.28
2023-01-17T03:28:22.120Z,98339.28
2023-01-17T03:28:34.725Z,98344.59
2023-01-17T03:28:47.347Z,98345.41
2023-01-17T03:29:00.974Z,98343.59
2023-01-17T03:29:13.588Z,98340.97
2023-01-17T03:29:26.165Z,98340.97
2023-01-17T03:29:38.772Z,98335.66
2023-01-17T03:29:51.395Z,98345.41
2023-01-17T03:30:04.701Z,98340.09
2023-01-17T03:30:17.900Z,98334.66
2023-01-17T03:30:31.529Z,98342.59
2023-01-17T03:30:45.581Z,98337.31
2023-01-17T03:30:58.215Z,98337.31
2023-01-17T03:31:14.762Z,98340.97
2023-01-17T03:31:27.400Z,98342.28
2023-01-17T03:31:40.266Z,98331.53
2023-01-17T03:31:53.064Z,98331.69
2023-01-17T03:32:07.148Z,98335.19
2023-01-17T03:32:19.722Z,98330.03
2023-01-17T03:32:32.323Z,98330.03
2023-01-17T03:32:44.892Z,98329.19
2023-01-17T03:32:57.497Z,98323.03
2023-01-17T03:33:10.068Z,98328.34
2023-01-17T03:33:23.672Z,98328.34
2023-01-17T03:33:36.601Z,98333.66
2023-01-17T03:33:49.244Z,98332.00
2023-01-17T03:34:01.830Z,98329.19
2023-01-17T03:34:14.416Z,98327.53
2023-01-17T03:34:26.985Z,98321.38
2023-01-17T03:34:39.615Z,98336.47
2023-01-17T03:34:53.153Z,98329.34
2023-01-17T03:35:06.864Z,98330.34
2023-01-17T03:35:19.461Z,98327.00
2023-01-17T03:35:32.071Z,98330.34
2023-01-17T03:35:45.227Z,98327.69
2023-01-17T03:35:59.303Z,98335.66
2023-01-17T03:36:12.286Z,98330.34
2023-01-17T03:36:24.922Z,98330.50
2023-01-17T03:36:37.473Z,98338.44
2023-01-17T03:36:50.085Z,98333.16
2023-01-17T03:37:02.653Z,98327.00
2023-01-17T03:37:15.322Z,98327.97
2023-01-17T03:37:27.874Z,98327.84
2023-01-17T03:37:41.434Z,98327.00
2023-01-17T03:37:54.057Z,98327.00
2023-01-17T03:38:06.646Z,98328.81
2023-01-17T03:38:19.557Z,98328.81
2023-01-17T03:38:32.126Z,98337.63
2023-01-17T03:38:44.688Z,98335.94
2023-01-17T03:38:58.334Z,98327.16
2023-01-17T03:39:11.721Z,98323.69
2023-01-17T03:39:24.304Z,98333.28
2023-01-17T03:39:36.984Z,98336.75
2023-01-17T03:39:49.862Z,98335.09
2023-01-17T03:40:02.467Z,98327.84
2023-01-17T03:40:15.339Z,98337.63
2023-01-17T03:40:27.917Z,98335.09
2023-01-17T03:40:40.692Z,98335.94